sensor_id;sensor_type;location;lat;lon;timestamp;pressure;altitude;pressure_sealevel;temperature;humidity
13800;BME280;6971;50.028;9.258;2022-12-29T00:03:53;98728.53;;;9.75;91.07
13800;BME280;6971;50.028;9.258;2022-12-29T00:08:54;98734.41;;;9.93;88.90
13800;BME280;6971;50.028;9.258;2022-12-29T00:13:56;98726.06;;;9.86;89.69
13800;BME280;6971;50.028;9.258;2022-12-29T00:19:16;98719.97;;;9.86;88.13
13800;BME280;6971;50.028;9.258;2022-12-29T00:24:55;98726.06;;;9.86;88.48
13800;BME280;6971;50.028;9.258;2022-12-29T00:30:15;98710.81;;;10.06;86.53
13800;BME280;6971;50.028;9.258;2022-12-29T00:35:39;98716.13;;;10.19;86.20
13800;BME280;6971;50.028;9.258;2022-12-29T00:40:45;98720.25;;;10.23;85.66
13800;BME280;6971;50.028;9.258;2022-12-29T00:46:04;98721.03;;;10.25;85.70
13800;BME280;6971;50.028;9.258;2022-12-29T00:51:07;98719.53;;;10.21;87.26
13800;BME280;6971;50.028;9.258;2022-12-29T00:56:08;98723.78;;;10.37;86.62
13800;BME280;6971;50.028;9.258;2022-12-29T01:01:10;98739.78;;;10.06;91.26
13800;BME280;6971;50.028;9.258;2022-12-29T01:06:12;98749.84;;;9.70;100.00
13800;BME280;6971;50.028;9.258;2022-12-29T01:11:28;98747.09;;;9.28;100.00
13800;BME280;6971;50.028;9.258;2022-12-29T01:16:29;98747.69;;;9.03;100.00
13800;BME280;6971;50.028;9.258;2022-12-29T01:21:31;98743.56;;;8.98;100.00
13800;BME280;6971;50.028;9.258;2022-12-29T01:26:33;98737.16;;;8.88;100.00
13800;BME280;6971;50.028;9.258;2022-12-29T01:31:34;98727.59;;;8.71;100.00
13800;BME280;6971;50.028;9.258;2022-12-29T01:36:35;98724.16;;;8.70;100.00
13800;BME280;6971;50.028;9.258;2022-12-29T01:41:36;98708.31;;;8.56;100.00
13800;BME280;6971;50.028;9.258;2022-12-29T01:46:46;98700.28;;;8.59;100.00
13800;BME280;6971;50.028;9.258;2022-12-29T01:51:53;98719.41;;;8.45;100.00
13800;BME280;6971;50.028;9.258;2022-12-29T01:56:57;98714.25;;;8.43;100.00
13800;BME280;6971;50.028;9.258;2022-12-29T02:02:01;98715.59;;;8.34;100.00
13800;BME280;6971;50.028;9.258;2022-12-29T02:07:12;98697.16;;;8.36;100.00
13800;BME280;6971;50.028;9.258;2022-12-29T02:12:17;98688.00;;;8.43;100.00
13800;BME280;6971;50.028;9.258;2022-12-29T02:17:41;98699.75;;;8.52;100.00
13800;BME280;6971;50.028;9.258;2022-12-29T02:23:15;98687.81;;;8.46;100.00
13800;BME280;6971;50.028;9.258;2022-12-29T02:33:57;98696.94;;;8.71;100.00
13800;BME280;6971;50.028;9.258;2022-12-29T02:44:26;98702.38;;;8.99;100.00
13800;BME280;6971;50.028;9.258;2022-12-29T02:49:34;98707.06;;;9.08;100.00
13800;BME280;6971;50.028;9.258;2022-12-29T02:54:37;98698.34;;;9.08;100.00
13800;BME280;6971;50.028;9.258;2022-12-29T02:59:44;98687.66;;;9.11;100.00
13800;BME280;6971;50.028;9.258;2022-12-29T03:10:17;98676.00;;;9.15;100.00
13800;BME280;6971;50.028;9.258;2022-12-29T03:15:38;98676.56;;;9.20;100.00
13800;BME280;6971;50.028;9.258;2022-12-29T03:21:06;98688.03;;;9.19;100.00
13800;BME280;6971;50.028;9.258;2022-12-29T03:26:11;98662.94;;;9.28;100.00
13800;BME280;6971;50.028;9.258;2022-12-29T03:31:14;98649.63;;;9.31;100.00
13800;BME280;6971;50.028;9.258;2022-12-29T03:36:32;98656.47;;;9.34;100.00
13800;BME280;6971;50.028;9.258;2022-12-29T03:41:36;98668.59;;;9.22;100.00
13800;BME280;6971;50.028;9.258;2022-12-29T03:46:38;98653.00;;;9.33;100.00
13800;BME280;6971;50.028;9.258;2022-12-29T03:51:43;98659.66;;;9.39;100.00
13800;BME280;6971;50.028;9.258;2022-12-29T03:56:43;98634.69;;;9.46;100.00
13800;BME280;6971;50.028;9.258;2022-12-29T04:01:45;98631.38;;;9.57;100.00
13800;BME280;6971;50.028;9.258;2022-12-29T04:06:49;98613.66;;;9.46;100.00
13800;BME280;6971;50.028;9.258;2022-12-29T04:11:50;98592.53;;;9.75;100.00
13800;BME280;6971;50.028;9.258;2022-12-29T04:16:52;98609.66;;;9.68;100.00
13800;BME280;6971;50.028;9.258;2022-12-29T04:21:53;98612.75;;;9.60;100.00
13800;BME280;6971;50.028;9.258;2022-12-29T04:26:54;98609.06;;;9.77;100.00
13800;BME280;6971;50.028;9.258;2022-12-29T04:32:11;98614.69;;;9.86;100.00
13800;BME280;6971;50.028;9.258;2022-12-29T04:37:11;98611.41;;;9.82;100.00
13800;BME280;6971;50.028;9.258;2022-12-29T04:42:13;98611.31;;;9.84;100.00
13800;BME280;6971;50.028;9.258;2022-12-29T04:47:13;98609.22;;;9.89;100.00
13800;BME280;6971;50.028;9.258;2022-12-29T04:52:14;98614.28;;;9.92;100.00
13800;BME280;6971;50.028;9.258;2022-12-29T04:57:27;98621.06;;;9.96;100.00
13800;BME280;6971;50.028;9.258;2022-12-29T05:02:28;98611.91;;;10.02;100.00
13800;BME280;6971;50.028;9.258;2022-12-29T05:07:28;98616.22;;;10.03;99.51
13800;BME280;6971;50.028;9.258;2022-12-29T05:12:31;98609.63;;;10.10;98.09
13800;BME280;6971;50.028;9.258;2022-12-29T05:17:32;98617.31;;;10.13;97.18
13800;BME280;6971;50.028;9.258;2022-12-29T05:22:34;98618.72;;;10.19;97.18
13800;BME280;6971;50.028;9.258;2022-12-29T05:27:35;98612.72;;;9.89;100.00
13800;BME280;6971;50.028;9.258;2022-12-29T05:32:48;98620.00;;;9.99;100.00
13800;BME280;6971;50.028;9.258;2022-12-29T05:37:48;98610.25;;;10.01;100.00
13800;BME280;6971;50.028;9.258;2022-12-29T05:42:49;98630.84;;;9.94;100.00
13800;BME280;6971;50.028;9.258;2022-12-29T05:47:50;98627.88;;;9.71;100.00
13800;BME280;6971;50.028;9.258;2022-12-29T05:52:51;98626.16;;;9.85;100.00
13800;BME280;6971;50.028;9.258;2022-12-29T05:57:52;98632.03;;;10.03;100.00
13800;BME280;6971;50.028;9.258;2022-12-29T06:02:58;98632.28;;;10.13;98.14
13800;BME280;6971;50.028;9.258;2022-12-29T06:07:58;98617.53;;;10.10;97.85
13800;BME280;6971;50.028;9.258;2022-12-29T06:13:00;98613.63;;;10.16;96.47
13800;BME280;6971;50.028;9.258;2022-12-29T06:18:01;98612.38;;;10.09;97.15
13800;BME280;6971;50.028;9.258;2022-12-29T06:23:02;98620.91;;;10.12;96.15
13800;BME280;6971;50.028;9.258;2022-12-29T06:28:03;98615.63;;;10.12;96.50
13800;BME280;6971;50.028;9.258;2022-12-29T06:33:04;98621.88;;;10.24;94.04
13800;BME280;6971;50.028;9.258;2022-12-29T06:38:05;98621.16;;;10.22;93.79
13800;BME280;6971;50.028;9.258;2022-12-29T06:43:06;98631.06;;;10.31;93.09
13800;BME280;6971;50.028;9.258;2022-12-29T06:48:08;98633.72;;;10.31;93.02
13800;BME280;6971;50.028;9.258;2022-12-29T06:53:09;98626.75;;;10.30;93.41
13800;BME280;6971;50.028;9.258;2022-12-29T06:58:11;98636.34;;;10.31;92.87
13800;BME280;6971;50.028;9.258;2022-12-29T07:03:12;98632.50;;;10.50;91.07
13800;BME280;6971;50.028;9.258;2022-12-29T07:08:13;98625.75;;;10.46;91.53
13800;BME280;6971;50.028;9.258;2022-12-29T07:13:15;98626.88;;;10.42;92.46
13800;BME280;6971;50.028;9.258;2022-12-29T07:18:16;98622.41;;;10.44;91.61
13800;BME280;6971;50.028;9.258;2022-12-29T07:23:18;98615.50;;;10.41;92.17
13800;BME280;6971;50.028;9.258;2022-12-29T07:28:18;98611.31;;;10.39;92.10
13800;BME280;6971;50.028;9.258;2022-12-29T07:33:37;98605.19;;;10.38;91.82
13800;BME280;6971;50.028;9.258;2022-12-29T07:38:38;98610.44;;;10.38;91.62
13800;BME280;6971;50.028;9.258;2022-12-29T07:43:39;98624.47;;;10.39;93.07
13800;BME280;6971;50.028;9.258;2022-12-29T07:48:41;98630.38;;;10.15;96.86
13800;BME280;6971;50.028;9.258;2022-12-29T07:53:42;98626.66;;;10.04;98.69
13800;BME280;6971;50.028;9.258;2022-12-29T07:58:46;98620.00;;;9.99;100.00
13800;BME280;6971;50.028;9.258;2022-12-29T08:03:49;98620.63;;;10.02;99.68
13800;BME280;6971;50.028;9.258;2022-12-29T08:09:03;98640.53;;;10.21;96.01
13800;BME280;6971;50.028;9.258;2022-12-29T08:14:05;98637.38;;;10.29;95.47
13800;BME280;6971;50.028;9.258;2022-12-29T08:19:05;98641.06;;;10.26;96.76
13800;BME280;6971;50.028;9.258;2022-12-29T08:24:08;98648.78;;;10.29;94.89
13800;BME280;6971;50.028;9.258;2022-12-29T08:29:09;98657.00;;;10.38;93.25
13800;BME280;6971;50.028;9.258;2022-12-29T08:34:10;98647.16;;;10.27;95.27
13800;BME280;6971;50.028;9.258;2022-12-29T08:39:11;98648.16;;;10.39;92.08
13800;BME280;6971;50.028;9.258;2022-12-29T08:44:12;98656.16;;;10.37;91.70
13800;BME280;6971;50.028;9.258;2022-12-29T08:49:13;98649.09;;;10.52;89.85
13800;BME280;6971;50.028;9.258;2022-12-29T08:54:14;98662.59;;;10.61;88.60
13800;BME280;6971;50.028;9.258;2022-12-29T08:59:15;98670.31;;;10.77;86.76
13800;BME280;6971;50.028;9.258;2022-12-29T09:04:19;98656.91;;;10.80;86.50
13800;BME280;6971;50.028;9.258;2022-12-29T09:09:21;98657.97;;;10.77;86.03
13800;BME280;6971;50.028;9.258;2022-12-29T09:14:30;98647.03;;;10.83;85.79
13800;BME280;6971;50.028;9.258;2022-12-29T09:19:31;98658.50;;;10.82;85.36
13800;BME280;6971;50.028;9.258;2022-12-29T09:24:32;98650.63;;;10.95;83.81
13800;BME280;6971;50.028;9.258;2022-12-29T09:29:34;98655.25;;;10.92;85.02
13800;BME280;6971;50.028;9.258;2022-12-29T09:34:35;98657.13;;;10.90;85.09
13800;BME280;6971;50.028;9.258;2022-12-29T09:39:35;98670.03;;;10.94;84.12
13800;BME280;6971;50.028;9.258;2022-12-29T09:50:26;98674.78;;;11.02;84.41
13800;BME280;6971;50.028;9.258;2022-12-29T09:55:41;98671.28;;;11.02;83.47
13800;BME280;6971;50.028;9.258;2022-12-29T10:01:21;98680.34;;;10.97;83.40
13800;BME280;6971;50.028;9.258;2022-12-29T10:06:26;98659.78;;;11.16;81.99
13800;BME280;6971;50.028;9.258;2022-12-29T10:27:56;98656.84;;;11.33;82.30
13800;BME280;6971;50.028;9.258;2022-12-29T10:33:06;98661.81;;;11.38;81.97
13800;BME280;6971;50.028;9.258;2022-12-29T10:38:18;98661.56;;;11.41;81.45
13800;BME280;6971;50.028;9.258;2022-12-29T10:43:45;98659.47;;;11.33;82.32
13800;BME280;6971;50.028;9.258;2022-12-29T10:48:47;98661.38;;;11.31;82.11
13800;BME280;6971;50.028;9.258;2022-12-29T10:54:03;98661.38;;;11.31;82.94
13800;BME280;6971;50.028;9.258;2022-12-29T10:59:23;98710.63;;;10.92;91.42
13800;BME280;6971;50.028;9.258;2022-12-29T11:04:47;98741.19;;;9.24;100.00
13800;BME280;6971;50.028;9.258;2022-12-29T11:09:52;98727.94;;;8.81;100.00
13800;BME280;6971;50.028;9.258;2022-12-29T11:20:40;98721.66;;;8.83;100.00
13800;BME280;6971;50.028;9.258;2022-12-29T11:25:40;98711.44;;;8.62;100.00
13800;BME280;6971;50.028;9.258;2022-12-29T11:30:43;98703.53;;;8.79;100.00
13800;BME280;6971;50.028;9.258;2022-12-29T11:35:44;98713.09;;;8.80;100.00
13800;BME280;6971;50.028;9.258;2022-12-29T11:40:46;98718.75;;;8.88;100.00
13800;BME280;6971;50.028;9.258;2022-12-29T11:45:47;98713.16;;;9.09;100.00
13800;BME280;6971;50.028;9.258;2022-12-29T11:50:53;98727.00;;;9.12;100.00
13800;BME280;6971;50.028;9.258;2022-12-29T11:55:58;98734.97;;;9.11;100.00
13800;BME280;6971;50.028;9.258;2022-12-29T12:01:04;98730.75;;;9.23;100.00
13800;BME280;6971;50.028;9.258;2022-12-29T12:06:12;98740.69;;;9.18;100.00
13800;BME280;6971;50.028;9.258;2022-12-29T12:11:18;98729.25;;;9.33;100.00
13800;BME280;6971;50.028;9.258;2022-12-29T12:16:24;98730.50;;;9.57;100.00
13800;BME280;6971;50.028;9.258;2022-12-29T12:21:32;98721.47;;;9.75;100.00
13800;BME280;6971;50.028;9.258;2022-12-29T12:27:01;98738.84;;;9.78;100.00
13800;BME280;6971;50.028;9.258;2022-12-29T12:32:22;98733.50;;;9.79;100.00
13800;BME280;6971;50.028;9.258;2022-12-29T12:54:00;98732.19;;;9.87;100.00
13800;BME280;6971;50.028;9.258;2022-12-29T13:10:54;98731.78;;;9.93;100.00
13800;BME280;6971;50.028;9.258;2022-12-29T13:15:46;98734.78;;;10.01;100.00
13800;BME280;6971;50.028;9.258;2022-12-29T13:26:26;98719.09;;;10.00;100.00
13800;BME280;6971;50.028;9.258;2022-12-29T13:31:35;98708.56;;;10.00;100.00
13800;BME280;6971;50.028;9.258;2022-12-29T13:36:44;98719.00;;;10.01;100.00
13800;BME280;6971;50.028;9.258;2022-12-29T13:41:56;98717.88;;;9.91;100.00
13800;BME280;6971;50.028;9.258;2022-12-29T13:47:11;98713.53;;;10.04;100.00
13800;BME280;6971;50.028;9.258;2022-12-29T14:02:42;98730.97;;;10.20;96.52
13800;BME280;6971;50.028;9.258;2022-12-29T14:08:05;98727.44;;;10.21;93.20
13800;BME280;6971;50.028;9.258;2022-12-29T14:13:22;98729.47;;;10.30;94.91
13800;BME280;6971;50.028;9.258;2022-12-29T14:18:26;98733.06;;;10.15;94.08
13800;BME280;6971;50.028;9.258;2022-12-29T14:28:43;98734.69;;;10.03;91.93
13800;BME280;6971;50.028;9.258;2022-12-29T14:39:36;98744.66;;;9.98;91.75
13800;BME280;6971;50.028;9.258;2022-12-29T14:44:51;98747.56;;;9.93;92.43
13800;BME280;6971;50.028;9.258;2022-12-29T14:49:53;98747.69;;;9.77;95.79
13800;BME280;6971;50.028;9.258;2022-12-29T14:54:57;98755.31;;;9.82;93.62
13800;BME280;6971;50.028;9.258;2022-12-29T15:00:22;98750.78;;;9.98;89.20
13800;BME280;6971;50.028;9.258;2022-12-29T15:05:49;98756.50;;;9.90;89.91
13800;BME280;6971;50.028;9.258;2022-12-29T15:10:58;98761.22;;;9.85;89.03
13800;BME280;6971;50.028;9.258;2022-12-29T15:16:01;98782.09;;;9.88;88.53
13800;BME280;6971;50.028;9.258;2022-12-29T15:21:05;98772.31;;;9.76;88.79
13800;BME280;6971;50.028;9.258;2022-12-29T15:26:08;98789.06;;;9.75;87.43
13800;BME280;6971;50.028;9.258;2022-12-29T15:31:14;98775.41;;;9.68;88.44
13800;BME280;6971;50.028;9.258;2022-12-29T15:36:19;98775.22;;;9.57;90.13
13800;BME280;6971;50.028;9.258;2022-12-29T15:46:31;98772.41;;;9.14;93.88
13800;BME280;6971;50.028;9.258;2022-12-29T15:51:38;98797.81;;;8.99;96.05
13800;BME280;6971;50.028;9.258;2022-12-29T15:56:40;98809.72;;;8.91;97.35
13800;BME280;6971;50.028;9.258;2022-12-29T16:01:42;98793.25;;;8.87;98.75
13800;BME280;6971;50.028;9.258;2022-12-29T16:06:58;98791.50;;;8.71;100.00
13800;BME280;6971;50.028;9.258;2022-12-29T16:12:15;98806.09;;;8.61;100.00
13800;BME280;6971;50.028;9.258;2022-12-29T16:17:21;98809.38;;;8.48;100.00
13800;BME280;6971;50.028;9.258;2022-12-29T16:22:36;98807.78;;;8.46;100.00
13800;BME280;6971;50.028;9.258;2022-12-29T16:27:41;98820.78;;;8.31;100.00
13800;BME280;6971;50.028;9.258;2022-12-29T16:32:47;98817.41;;;8.29;100.00
13800;BME280;6971;50.028;9.258;2022-12-29T16:38:15;98804.34;;;8.12;100.00
13800;BME280;6971;50.028;9.258;2022-12-29T16:43:29;98811.97;;;8.16;100.00
13800;BME280;6971;50.028;9.258;2022-12-29T16:48:35;98822.97;;;8.07;100.00
13800;BME280;6971;50.028;9.258;2022-12-29T16:53:38;98829.94;;;8.08;100.00
13800;BME280;6971;50.028;9.258;2022-12-29T16:58:40;98830.81;;;7.91;100.00
13800;BME280;6971;50.028;9.258;2022-12-29T17:03:48;98841.22;;;7.92;100.00
13800;BME280;6971;50.028;9.258;2022-12-29T17:08:54;98830.28;;;7.84;100.00
13800;BME280;6971;50.028;9.258;2022-12-29T17:13:54;98857.59;;;7.80;100.00
13800;BME280;6971;50.028;9.258;2022-12-29T17:18:55;98858.53;;;7.79;100.00
13800;BME280;6971;50.028;9.258;2022-12-29T17:23:56;98855.19;;;7.93;100.00
13800;BME280;6971;50.028;9.258;2022-12-29T17:28:57;98845.38;;;7.96;100.00
13800;BME280;6971;50.028;9.258;2022-12-29T17:33:58;98854.50;;;7.89;100.00
13800;BME280;6971;50.028;9.258;2022-12-29T17:38:59;98869.22;;;7.92;100.00
13800;BME280;6971;50.028;9.258;2022-12-29T17:44:00;98875.78;;;8.01;100.00
13800;BME280;6971;50.028;9.258;2022-12-29T17:49:01;98886.19;;;8.02;100.00
13800;BME280;6971;50.028;9.258;2022-12-29T17:54:03;98886.28;;;8.01;100.00
13800;BME280;6971;50.028;9.258;2022-12-29T17:59:11;98884.66;;;7.98;100.00
13800;BME280;6971;50.028;9.258;2022-12-29T18:04:16;98886.75;;;7.91;100.00
13800;BME280;6971;50.028;9.258;2022-12-29T18:09:17;98878.59;;;7.80;100.00
13800;BME280;6971;50.028;9.258;2022-12-29T18:14:18;98887.72;;;7.73;100.00
13800;BME280;6971;50.028;9.258;2022-12-29T18:19:20;98882.47;;;7.73;100.00
13800;BME280;6971;50.028;9.258;2022-12-29T18:24:20;98887.84;;;7.69;100.00
13800;BME280;6971;50.028;9.258;2022-12-29T18:29:22;98892.09;;;7.72;100.00
13800;BME280;6971;50.028;9.258;2022-12-29T18:34:23;98889.06;;;7.80;100.00
13800;BME280;6971;50.028;9.258;2022-12-29T18:39:25;98891.94;;;7.75;100.00
13800;BME280;6971;50.028;9.258;2022-12-29T18:44:25;98896.47;;;7.71;100.00
13800;BME280;6971;50.028;9.258;2022-12-29T18:49:27;98903.97;;;7.79;100.00
13800;BME280;6971;50.028;9.258;2022-12-29T18:54:32;98906.69;;;7.78;100.00
13800;BME280;6971;50.028;9.258;2022-12-29T18:59:33;98906.16;;;7.71;100.00
13800;BME280;6971;50.028;9.258;2022-12-29T19:04:33;98902.81;;;7.67;100.00
13800;BME280;6971;50.028;9.258;2022-12-29T19:09:34;98896.19;;;7.60;100.00
13800;BME280;6971;50.028;9.258;2022-12-29T19:14:35;98908.63;;;7.56;100.00
13800;BME280;6971;50.028;9.258;2022-12-29T19:19:36;98896.88;;;7.46;100.00
13800;BME280;6971;50.028;9.258;2022-12-29T19:24:37;98912.50;;;7.30;100.00
13800;BME280;6971;50.028;9.258;2022-12-29T19:29:38;98918.38;;;6.98;100.00
13800;BME280;6971;50.028;9.258;2022-12-29T19:34:39;98913.50;;;6.90;100.00
13800;BME280;6971;50.028;9.258;2022-12-29T19:39:40;98903.81;;;6.54;100.00
13800;BME280;6971;50.028;9.258;2022-12-29T19:44:41;98904.25;;;6.45;100.00
13800;BME280;6971;50.028;9.258;2022-12-29T19:49:41;98905.06;;;6.26;100.00
13800;BME280;6971;50.028;9.258;2022-12-29T19:54:43;98910.06;;;5.91;100.00
13800;BME280;6971;50.028;9.258;2022-12-29T19:59:43;98908.09;;;5.96;100.00
13800;BME280;6971;50.028;9.258;2022-12-29T20:04:45;98914.44;;;5.90;100.00
13800;BME280;6971;50.028;9.258;2022-12-29T20:09:47;98918.75;;;5.70;100.00
13800;BME280;6971;50.028;9.258;2022-12-29T20:14:48;98923.25;;;5.87;100.00
13800;BME280;6971;50.028;9.258;2022-12-29T20:19:49;98923.72;;;5.77;100.00
13800;BME280;6971;50.028;9.258;2022-12-29T20:24:50;98926.16;;;5.81;100.00
13800;BME280;6971;50.028;9.258;2022-12-29T20:29:50;98921.75;;;5.82;100.00
13800;BME280;6971;50.028;9.258;2022-12-29T20:34:51;98931.81;;;5.91;100.00
13800;BME280;6971;50.028;9.258;2022-12-29T20:39:54;98937.03;;;5.91;100.00
13800;BME280;6971;50.028;9.258;2022-12-29T20:44:54;98935.69;;;6.03;100.00
13800;BME280;6971;50.028;9.258;2022-12-29T20:49:55;98944.59;;;5.99;100.00
13800;BME280;6971;50.028;9.258;2022-12-29T20:54:56;98939.59;;;5.93;100.00
13800;BME280;6971;50.028;9.258;2022-12-29T20:59:56;98948.09;;;5.98;100.00
13800;BME280;6971;50.028;9.258;2022-12-29T21:04:57;98955.91;;;6.60;100.00
13800;BME280;6971;50.028;9.258;2022-12-29T21:09:58;98954.13;;;6.61;100.00
13800;BME280;6971;50.028;9.258;2022-12-29T21:14:59;98952.28;;;6.63;100.00
13800;BME280;6971;50.028;9.258;2022-12-29T21:20:00;98954.97;;;6.81;100.00
13800;BME280;6971;50.028;9.258;2022-12-29T21:25:01;98965.38;;;6.44;100.00
13800;BME280;6971;50.028;9.258;2022-12-29T21:30:03;98951.63;;;6.38;100.00
13800;BME280;6971;50.028;9.258;2022-12-29T21:35:04;98957.13;;;6.32;100.00
13800;BME280;6971;50.028;9.258;2022-12-29T21:40:05;98948.53;;;6.30;100.00
13800;BME280;6971;50.028;9.258;2022-12-29T21:45:08;98957.22;;;6.10;100.00
13800;BME280;6971;50.028;9.258;2022-12-29T21:50:24;98956.25;;;6.12;100.00
13800;BME280;6971;50.028;9.258;2022-12-29T21:55:25;98967.81;;;6.07;100.00
13800;BME280;6971;50.028;9.258;2022-12-29T22:00:26;98978.28;;;6.07;100.00
13800;BME280;6971;50.028;9.258;2022-12-29T22:05:46;98983.00;;;6.19;100.00
13800;BME280;6971;50.028;9.258;2022-12-29T22:11:07;98983.53;;;6.07;100.00
13800;BME280;6971;50.028;9.258;2022-12-29T22:16:27;98996.16;;;6.18;100.00
13800;BME280;6971;50.028;9.258;2022-12-29T22:21:27;99012.81;;;6.36;100.00
13800;BME280;6971;50.028;9.258;2022-12-29T22:26:28;99026.34;;;6.46;100.00
13800;BME280;6971;50.028;9.258;2022-12-29T22:31:29;99042.56;;;6.75;100.00
13800;BME280;6971;50.028;9.258;2022-12-29T22:36:32;99043.41;;;6.75;100.00
13800;BME280;6971;50.028;9.258;2022-12-29T22:41:33;99061.03;;;6.72;100.00
13800;BME280;6971;50.028;9.258;2022-12-29T22:46:36;99074.47;;;6.83;100.00
13800;BME280;6971;50.028;9.258;2022-12-29T22:51:37;99076.63;;;6.94;100.00
13800;BME280;6971;50.028;9.258;2022-12-29T22:56:38;99075.97;;;6.89;100.00
13800;BME280;6971;50.028;9.258;2022-12-29T23:01:42;99076.41;;;6.79;100.00
13800;BME280;6971;50.028;9.258;2022-12-29T23:06:43;99079.47;;;6.69;100.00
13800;BME280;6971;50.028;9.258;2022-12-29T23:11:45;99086.91;;;6.38;100.00
13800;BME280;6971;50.028;9.258;2022-12-29T23:16:46;99079.13;;;6.14;100.00
13800;BME280;6971;50.028;9.258;2022-12-29T23:21:48;99088.75;;;5.91;100.00
13800;BME280;6971;50.028;9.258;2022-12-29T23:26:49;99088.63;;;5.72;100.00
13800;BME280;6971;50.028;9.258;2022-12-29T23:31:50;99098.41;;;5.44;100.00
13800;BME280;6971;50.028;9.258;2022-12-29T23:36:51;99107.50;;;5.34;100.00
13800;BME280;6971;50.028;9.258;2022-12-29T23:41:51;99110.16;;;5.08;100.00
13800;BME280;6971;50.028;9.258;2022-12-29T23:46:53;99110.53;;;4.74;100.00
13800;BME280;6971;50.028;9.258;2022-12-29T23:51:53;99108.44;;;4.58;100.00
13800;BME280;6971;50.028;9.258;2022-12-29T23:56:54;99111.53;;;4.69;100.00
